ETH685 ZSPD-HAAB
Flight info
| Callsign | ETH685 |
|---|---|
| Flight time | N/A |
| Altitude | 34100 |
| Route | POMOK G330 UNTAN G345 OLRIS R343 MADUK W51 LEGIV W164 ADGOL W50 XSH W80 IDGAG A581 TAXOR/K0930S1100 A581 QNX W136 XISLI A581 SGM A599 LINSO/N0500F360 A599 CTG B465 CEA G450 OPONI/N0498F380 G450 BBB P751 DAPAB/N0483F400 P751 ULALI T701 TORBA UB535 LAKBE LAKBE3A |
| Aircraft | A359/H-SPCMNB2ABCDEFGHIJLMNOP/LB1D1 |
Departure
| Time | N/A |
|---|---|
| Airport | Shanghai Pudong International Airport (ZSPD) |
Arrival
| Time | 2026-05-05 09:12 |
|---|---|
| Airport | Addis Ababa Bole International Airport (HAAB) |
| Time | Latitude | Longitude | Altitude | Speed | Heading |
|---|---|---|---|---|---|
| 2026-05-05 07:24 | 14.15815 | 50.86166 | 35974 ft | 505 kts | 255° |
| 2026-05-05 07:24 | 14.14178 | 50.79110 | 35974 ft | 504 kts | 255° |
| 2026-05-05 07:25 | 14.10507 | 50.65060 | 35972 ft | 502 kts | 245° |
| 2026-05-05 07:26 | 14.07334 | 50.58650 | 35971 ft | 501 kts | 240° |
| 2026-05-05 07:26 | 14.03959 | 50.52364 | 35973 ft | 501 kts | 239° |
| 2026-05-05 07:27 | 14.00575 | 50.46136 | 35971 ft | 501 kts | 240° |
| 2026-05-05 07:27 | 13.97172 | 50.39843 | 35971 ft | 501 kts | 240° |
| 2026-05-05 07:28 | 13.93788 | 50.33564 | 35969 ft | 500 kts | 240° |
| 2026-05-05 07:28 | 13.90425 | 50.27320 | 35970 ft | 500 kts | 240° |
| 2026-05-05 07:29 | 13.87048 | 50.21058 | 35970 ft | 500 kts | 240° |
| 2026-05-05 07:29 | 13.83680 | 50.14817 | 35970 ft | 500 kts | 240° |
| 2026-05-05 07:30 | 13.80295 | 50.08550 | 35973 ft | 500 kts | 240° |
| 2026-05-05 07:30 | 13.75250 | 49.99174 | 35973 ft | 501 kts | 240° |
| 2026-05-05 07:31 | 13.71883 | 49.92892 | 35970 ft | 501 kts | 240° |
| 2026-05-05 07:31 | 13.68517 | 49.86618 | 35967 ft | 500 kts | 240° |
| 2026-05-05 07:32 | 13.65144 | 49.80341 | 35967 ft | 500 kts | 240° |
| 2026-05-05 07:32 | 13.61792 | 49.74110 | 35967 ft | 500 kts | 240° |
| 2026-05-05 07:33 | 13.58411 | 49.67828 | 35967 ft | 500 kts | 240° |
| 2026-05-05 07:33 | 13.55038 | 49.61567 | 35967 ft | 500 kts | 240° |
| 2026-05-05 07:34 | 13.51681 | 49.55340 | 35970 ft | 500 kts | 240° |
| 2026-05-05 07:34 | 13.48302 | 49.49076 | 35970 ft | 500 kts | 240° |
| 2026-05-05 07:35 | 13.44943 | 49.42854 | 35970 ft | 500 kts | 240° |
| 2026-05-05 07:35 | 13.41564 | 49.36600 | 35970 ft | 500 kts | 240° |
| 2026-05-05 07:36 | 13.38180 | 49.30341 | 35969 ft | 500 kts | 240° |
| 2026-05-05 07:36 | 13.34822 | 49.24135 | 35973 ft | 500 kts | 239° |
| 2026-05-05 07:37 | 13.31435 | 49.17880 | 35973 ft | 500 kts | 239° |
| 2026-05-05 07:37 | 13.28074 | 49.11612 | 35973 ft | 500 kts | 240° |
| 2026-05-05 07:38 | 13.24748 | 49.05354 | 35970 ft | 500 kts | 240° |
| 2026-05-05 07:38 | 13.21405 | 48.99080 | 35970 ft | 500 kts | 240° |
| 2026-05-05 07:39 | 13.18077 | 48.92852 | 35970 ft | 500 kts | 240° |
| 2026-05-05 07:39 | 13.14721 | 48.86580 | 35970 ft | 500 kts | 240° |
| 2026-05-05 07:40 | 13.11364 | 48.80312 | 35973 ft | 500 kts | 240° |
| 2026-05-05 07:40 | 13.08030 | 48.74090 | 35973 ft | 500 kts | 240° |
| 2026-05-05 07:41 | 13.04671 | 48.67826 | 35973 ft | 500 kts | 240° |
| 2026-05-05 07:41 | 13.01327 | 48.61596 | 35973 ft | 500 kts | 240° |
| 2026-05-05 07:42 | 12.97971 | 48.55345 | 35973 ft | 500 kts | 240° |
| 2026-05-05 07:42 | 12.94630 | 48.49128 | 35973 ft | 500 kts | 240° |
| 2026-05-05 07:43 | 12.91268 | 48.42876 | 35970 ft | 500 kts | 240° |
| 2026-05-05 07:43 | 12.87907 | 48.36631 | 35973 ft | 500 kts | 240° |
| 2026-05-05 07:44 | 12.84555 | 48.30407 | 35973 ft | 500 kts | 240° |
| 2026-05-05 07:44 | 12.81181 | 48.24145 | 35973 ft | 500 kts | 240° |
| 2026-05-05 07:45 | 12.77831 | 48.17934 | 35970 ft | 500 kts | 240° |
| 2026-05-05 07:45 | 12.74459 | 48.11686 | 35970 ft | 500 kts | 240° |
| 2026-05-05 07:46 | 12.71085 | 48.05438 | 35970 ft | 500 kts | 240° |
| 2026-05-05 07:46 | 12.67734 | 47.99237 | 35970 ft | 500 kts | 240° |
| 2026-05-05 07:47 | 12.64358 | 47.92995 | 35970 ft | 500 kts | 240° |
| 2026-05-05 07:47 | 12.60979 | 47.86752 | 35970 ft | 500 kts | 240° |
| 2026-05-05 07:48 | 12.57607 | 47.80524 | 35970 ft | 500 kts | 240° |
| 2026-05-05 07:48 | 12.54245 | 47.74322 | 35970 ft | 500 kts | 240° |
| 2026-05-05 07:49 | 12.50857 | 47.68073 | 35970 ft | 500 kts | 240° |
| 2026-05-05 07:49 | 12.47491 | 47.61871 | 35970 ft | 501 kts | 240° |
| 2026-05-05 07:50 | 12.44107 | 47.55639 | 35970 ft | 501 kts | 240° |
| 2026-05-05 07:50 | 12.41156 | 47.49172 | 35968 ft | 502 kts | 252° |
| 2026-05-05 07:51 | 12.39966 | 47.42143 | 35967 ft | 502 kts | 264° |
| 2026-05-05 07:51 | 12.39452 | 47.35000 | 35970 ft | 503 kts | 266° |
| 2026-05-05 07:52 | 12.39038 | 47.27888 | 35970 ft | 503 kts | 266° |
| 2026-05-05 07:52 | 12.38600 | 47.20736 | 35970 ft | 503 kts | 266° |
| 2026-05-05 07:53 | 12.38138 | 47.13627 | 35970 ft | 503 kts | 265° |
| 2026-05-05 07:53 | 12.37664 | 47.06500 | 35970 ft | 502 kts | 265° |
| 2026-05-05 07:54 | 12.37274 | 47.00542 | 35970 ft | 502 kts | 266° |
| 2026-05-05 07:54 | 12.36826 | 46.93396 | 35967 ft | 502 kts | 266° |
| 2026-05-05 07:55 | 12.36377 | 46.86257 | 35967 ft | 502 kts | 266° |
| 2026-05-05 07:55 | 12.35928 | 46.79172 | 35970 ft | 502 kts | 265° |
| 2026-05-05 07:56 | 12.35474 | 46.72047 | 35970 ft | 502 kts | 265° |
| 2026-05-05 07:56 | 12.35015 | 46.64905 | 35967 ft | 502 kts | 266° |
| 2026-05-05 07:57 | 12.34557 | 46.57788 | 35967 ft | 502 kts | 266° |
| 2026-05-05 07:57 | 12.34101 | 46.50731 | 35970 ft | 502 kts | 266° |
| 2026-05-05 07:58 | 12.33638 | 46.43590 | 35970 ft | 502 kts | 266° |
| 2026-05-05 07:58 | 12.33176 | 46.36498 | 35970 ft | 502 kts | 266° |
| 2026-05-05 07:59 | 12.32709 | 46.29361 | 35970 ft | 501 kts | 266° |
| 2026-05-05 07:59 | 12.32241 | 46.22233 | 35970 ft | 501 kts | 265° |
| 2026-05-05 08:00 | 12.31776 | 46.15172 | 35972 ft | 501 kts | 266° |
| 2026-05-05 08:00 | 12.31305 | 46.08057 | 35973 ft | 501 kts | 265° |
| 2026-05-05 08:01 | 12.30833 | 46.00950 | 35970 ft | 500 kts | 265° |
| 2026-05-05 08:01 | 12.30361 | 45.93884 | 35970 ft | 500 kts | 266° |
| 2026-05-05 08:02 | 12.29885 | 45.86772 | 35969 ft | 500 kts | 266° |
| 2026-05-05 08:02 | 12.29409 | 45.79697 | 35972 ft | 500 kts | 266° |
| 2026-05-05 08:03 | 12.28930 | 45.72598 | 35976 ft | 500 kts | 265° |
| 2026-05-05 08:03 | 12.28448 | 45.65485 | 35975 ft | 501 kts | 265° |
| 2026-05-05 08:04 | 12.27967 | 45.58404 | 35976 ft | 501 kts | 265° |
| 2026-05-05 08:04 | 12.27480 | 45.51279 | 35975 ft | 501 kts | 265° |
| 2026-05-05 08:05 | 12.26991 | 45.44140 | 35976 ft | 502 kts | 265° |
| 2026-05-05 08:05 | 12.26506 | 45.37068 | 35975 ft | 502 kts | 265° |
| 2026-05-05 08:06 | 12.26045 | 45.29931 | 35973 ft | 502 kts | 266° |
| 2026-05-05 08:06 | 12.25595 | 45.22786 | 35973 ft | 502 kts | 266° |
| 2026-05-05 08:07 | 12.25142 | 45.15691 | 35973 ft | 503 kts | 266° |
| 2026-05-05 08:07 | 12.24681 | 45.08553 | 35973 ft | 503 kts | 266° |
| 2026-05-05 08:08 | 12.24220 | 45.01458 | 35973 ft | 502 kts | 266° |
| 2026-05-05 08:08 | 12.23755 | 44.94328 | 35973 ft | 502 kts | 266° |
| 2026-05-05 08:09 | 12.23287 | 44.87198 | 35970 ft | 502 kts | 266° |
| 2026-05-05 08:09 | 12.22817 | 44.80048 | 35970 ft | 503 kts | 266° |
| 2026-05-05 08:10 | 12.22346 | 44.72904 | 35970 ft | 503 kts | 265° |
| 2026-05-05 08:10 | 12.21876 | 44.65815 | 35973 ft | 502 kts | 265° |
| 2026-05-05 08:11 | 12.21402 | 44.58690 | 35970 ft | 503 kts | 266° |
| 2026-05-05 08:11 | 12.20929 | 44.51602 | 35970 ft | 502 kts | 266° |
| 2026-05-05 08:12 | 12.20451 | 44.44474 | 35970 ft | 502 kts | 265° |
| 2026-05-05 08:12 | 12.19970 | 44.37339 | 35967 ft | 502 kts | 265° |
| 2026-05-05 08:13 | 12.19491 | 44.30248 | 35967 ft | 502 kts | 265° |
| 2026-05-05 08:13 | 12.19008 | 44.23121 | 35967 ft | 502 kts | 265° |
| 2026-05-05 08:14 | 12.18522 | 44.15991 | 35967 ft | 502 kts | 265° |
| 2026-05-05 08:14 | 12.18003 | 44.08917 | 35965 ft | 502 kts | 262° |
| 2026-05-05 08:15 | 12.16202 | 44.02052 | 35965 ft | 500 kts | 245° |
| 2026-05-05 08:15 | 12.12666 | 43.95940 | 35964 ft | 500 kts | 236° |
| 2026-05-05 08:16 | 12.08700 | 43.90069 | 35965 ft | 500 kts | 234° |
| 2026-05-05 08:16 | 12.04700 | 43.84251 | 35965 ft | 500 kts | 234° |
| 2026-05-05 08:17 | 12.00739 | 43.78443 | 35965 ft | 500 kts | 235° |
| 2026-05-05 08:17 | 11.96766 | 43.72577 | 35965 ft | 500 kts | 235° |
| 2026-05-05 08:18 | 11.92829 | 43.66755 | 35964 ft | 501 kts | 235° |
| 2026-05-05 08:18 | 11.88866 | 43.60900 | 35964 ft | 501 kts | 235° |
| 2026-05-05 08:19 | 11.84968 | 43.55082 | 35965 ft | 500 kts | 236° |
| 2026-05-05 08:19 | 11.81101 | 43.49179 | 35965 ft | 499 kts | 236° |
| 2026-05-05 08:20 | 11.77234 | 43.43278 | 35962 ft | 499 kts | 236° |
| 2026-05-05 08:20 | 11.73357 | 43.37387 | 35962 ft | 500 kts | 236° |
| 2026-05-05 08:21 | 11.69504 | 43.31545 | 35959 ft | 500 kts | 236° |
| 2026-05-05 08:21 | 11.65624 | 43.25668 | 35967 ft | 500 kts | 236° |
| 2026-05-05 08:22 | 11.61729 | 43.19770 | 35960 ft | 500 kts | 236° |
| 2026-05-05 08:22 | 11.57844 | 43.13890 | 35968 ft | 500 kts | 236° |
| 2026-05-05 08:23 | 11.54127 | 43.07945 | 35976 ft | 500 kts | 241° |
| 2026-05-05 08:23 | 11.50729 | 43.01745 | 35976 ft | 500 kts | 241° |
| 2026-05-05 08:24 | 11.47359 | 42.95560 | 35975 ft | 501 kts | 241° |
| 2026-05-05 08:24 | 11.43971 | 42.89334 | 35976 ft | 501 kts | 241° |
| 2026-05-05 08:25 | 11.40590 | 42.83119 | 35981 ft | 501 kts | 241° |
| 2026-05-05 08:25 | 11.37225 | 42.76936 | 35986 ft | 501 kts | 241° |
| 2026-05-05 08:26 | 11.33841 | 42.70724 | 35986 ft | 501 kts | 241° |
| 2026-05-05 08:26 | 11.30471 | 42.64540 | 35989 ft | 501 kts | 241° |
| 2026-05-05 08:27 | 11.27082 | 42.58325 | 35986 ft | 501 kts | 241° |
| 2026-05-05 08:27 | 11.23686 | 42.52100 | 35981 ft | 501 kts | 241° |
| 2026-05-05 08:28 | 11.20312 | 42.45921 | 35984 ft | 501 kts | 242° |
| 2026-05-05 08:28 | 11.16912 | 42.39698 | 35972 ft | 501 kts | 241° |
| 2026-05-05 08:29 | 11.13516 | 42.33484 | 35976 ft | 502 kts | 241° |
| 2026-05-05 08:30 | 11.08426 | 42.24180 | 35972 ft | 502 kts | 242° |
| 2026-05-05 08:30 | 11.05020 | 42.17958 | 35969 ft | 502 kts | 242° |
| 2026-05-05 08:31 | 11.01705 | 42.11746 | 35968 ft | 502 kts | 243° |
| 2026-05-05 08:31 | 10.98469 | 42.05421 | 35964 ft | 502 kts | 243° |
| 2026-05-05 08:32 | 10.95237 | 41.99147 | 35967 ft | 502 kts | 243° |
| 2026-05-05 08:32 | 10.91986 | 41.92852 | 35967 ft | 502 kts | 243° |
| 2026-05-05 08:33 | 10.88723 | 41.86542 | 35970 ft | 503 kts | 242° |
| 2026-05-05 08:33 | 10.85480 | 41.80275 | 35970 ft | 503 kts | 243° |
| 2026-05-05 08:34 | 10.82221 | 41.73981 | 35970 ft | 502 kts | 243° |
| 2026-05-05 08:34 | 10.78955 | 41.67676 | 35970 ft | 502 kts | 243° |
| 2026-05-05 08:35 | 10.75710 | 41.61419 | 35970 ft | 502 kts | 242° |
| 2026-05-05 08:35 | 10.72441 | 41.55117 | 35976 ft | 502 kts | 242° |
| 2026-05-05 08:36 | 10.69185 | 41.48845 | 35973 ft | 502 kts | 242° |
| 2026-05-05 08:36 | 10.65916 | 41.42549 | 35970 ft | 502 kts | 242° |
| 2026-05-05 08:37 | 10.62649 | 41.36263 | 35972 ft | 502 kts | 242° |
| 2026-05-05 08:37 | 10.59386 | 41.29988 | 35972 ft | 502 kts | 242° |
| 2026-05-05 08:38 | 10.56136 | 41.23741 | 35973 ft | 502 kts | 242° |
| 2026-05-05 08:38 | 10.52867 | 41.17462 | 35973 ft | 502 kts | 242° |
| 2026-05-05 08:39 | 10.49588 | 41.11169 | 35973 ft | 502 kts | 242° |
| 2026-05-05 08:39 | 10.46332 | 41.04922 | 35973 ft | 503 kts | 242° |
| 2026-05-05 08:40 | 10.43057 | 40.98642 | 35973 ft | 502 kts | 242° |
| 2026-05-05 08:40 | 10.39950 | 40.92688 | 35973 ft | 502 kts | 242° |
| 2026-05-05 08:41 | 10.36689 | 40.86443 | 35973 ft | 502 kts | 242° |
| 2026-05-05 08:41 | 10.33969 | 40.81236 | 35973 ft | 502 kts | 242° |
| 2026-05-05 08:42 | 10.30684 | 40.74951 | 35973 ft | 502 kts | 242° |
| 2026-05-05 08:42 | 10.27426 | 40.68723 | 35973 ft | 502 kts | 242° |
| 2026-05-05 08:43 | 10.24142 | 40.62447 | 35975 ft | 502 kts | 242° |
| 2026-05-05 08:43 | 10.20857 | 40.56173 | 35995 ft | 502 kts | 242° |
| 2026-05-05 08:44 | 10.17572 | 40.49902 | 35995 ft | 502 kts | 242° |
| 2026-05-05 08:44 | 10.14304 | 40.43668 | 36006 ft | 502 kts | 242° |
| 2026-05-05 08:45 | 10.11020 | 40.37406 | 36034 ft | 501 kts | 242° |
| 2026-05-05 08:45 | 10.07741 | 40.31158 | 36033 ft | 501 kts | 242° |
| 2026-05-05 08:46 | 10.04476 | 40.24939 | 36054 ft | 502 kts | 242° |
| 2026-05-05 08:46 | 10.01211 | 40.18724 | 36080 ft | 501 kts | 242° |
| 2026-05-05 08:47 | 9.97933 | 40.12488 | 36078 ft | 501 kts | 242° |
| 2026-05-05 08:47 | 9.94668 | 40.06281 | 36118 ft | 501 kts | 242° |
| 2026-05-05 08:48 | 9.91378 | 40.00029 | 36159 ft | 501 kts | 242° |
| 2026-05-05 08:48 | 9.88112 | 39.93826 | 36199 ft | 500 kts | 242° |
| 2026-05-05 08:49 | 9.84844 | 39.87621 | 36206 ft | 501 kts | 242° |
| 2026-05-05 08:49 | 9.81553 | 39.81379 | 36240 ft | 501 kts | 242° |
| 2026-05-05 08:50 | 9.78279 | 39.75170 | 36271 ft | 501 kts | 242° |
| 2026-05-05 08:50 | 9.74987 | 39.68932 | 36273 ft | 501 kts | 242° |
| 2026-05-05 08:51 | 9.71695 | 39.62697 | 36302 ft | 501 kts | 242° |
| 2026-05-05 08:51 | 9.68422 | 39.56501 | 36314 ft | 501 kts | 242° |
| 2026-05-05 08:52 | 9.65139 | 39.50289 | 36328 ft | 500 kts | 242° |
| 2026-05-05 08:52 | 9.61848 | 39.44066 | 36335 ft | 500 kts | 242° |
| 2026-05-05 08:53 | 9.58559 | 39.37849 | 36355 ft | 500 kts | 242° |
| 2026-05-05 08:53 | 9.55288 | 39.31671 | 36355 ft | 499 kts | 242° |
| 2026-05-05 08:54 | 9.52012 | 39.25485 | 35716 ft | 495 kts | 241° |
| 2026-05-05 08:54 | 9.50380 | 39.22405 | 35186 ft | 493 kts | 241° |
| 2026-05-05 08:54 | 9.48757 | 39.19341 | 34500 ft | 494 kts | 241° |
| 2026-05-05 08:54 | 9.47121 | 39.16256 | 33577 ft | 498 kts | 241° |
| 2026-05-05 08:55 | 9.45497 | 39.13196 | 32690 ft | 501 kts | 242° |
| 2026-05-05 08:55 | 9.43847 | 39.10084 | 31846 ft | 502 kts | 242° |
| 2026-05-05 08:55 | 9.42187 | 39.06956 | 31011 ft | 504 kts | 242° |
| 2026-05-05 08:55 | 9.40519 | 39.03812 | 30138 ft | 506 kts | 242° |
| 2026-05-05 08:56 | 9.38846 | 39.00659 | 29111 ft | 509 kts | 242° |
| 2026-05-05 08:56 | 9.37170 | 38.97502 | 28344 ft | 506 kts | 242° |
| 2026-05-05 08:56 | 9.35510 | 38.94379 | 27682 ft | 502 kts | 242° |
| 2026-05-05 08:56 | 9.33860 | 38.91265 | 27043 ft | 497 kts | 242° |
| 2026-05-05 08:57 | 9.32257 | 38.88241 | 26405 ft | 493 kts | 242° |
| 2026-05-05 08:57 | 9.30636 | 38.85186 | 25814 ft | 488 kts | 242° |
| 2026-05-05 08:57 | 9.29034 | 38.82166 | 25216 ft | 484 kts | 242° |
| 2026-05-05 08:57 | 9.27439 | 38.79162 | 24585 ft | 481 kts | 242° |
| 2026-05-05 08:58 | 9.25856 | 38.76187 | 24001 ft | 476 kts | 242° |
| 2026-05-05 08:58 | 9.24314 | 38.73282 | 23303 ft | 473 kts | 242° |
| 2026-05-05 08:58 | 9.22757 | 38.70349 | 22491 ft | 471 kts | 241° |
| 2026-05-05 08:58 | 9.21208 | 38.67433 | 21815 ft | 467 kts | 241° |
| 2026-05-05 08:59 | 9.19674 | 38.64547 | 21089 ft | 465 kts | 241° |
| 2026-05-05 08:59 | 9.18144 | 38.61669 | 20308 ft | 464 kts | 241° |
| 2026-05-05 08:59 | 9.16621 | 38.58806 | 19796 ft | 454 kts | 241° |
| 2026-05-05 08:59 | 9.15158 | 38.56058 | 19340 ft | 430 kts | 241° |
| 2026-05-05 09:00 | 9.13797 | 38.53496 | 18893 ft | 409 kts | 240° |
| 2026-05-05 09:00 | 9.12481 | 38.51023 | 18453 ft | 390 kts | 240° |
| 2026-05-05 09:00 | 9.11221 | 38.48656 | 17999 ft | 371 kts | 241° |
| 2026-05-05 09:00 | 9.09995 | 38.46424 | 17581 ft | 353 kts | 237° |
| 2026-05-05 09:01 | 9.08569 | 38.44476 | 17218 ft | 336 kts | 228° |
| 2026-05-05 09:01 | 9.07076 | 38.42729 | 16901 ft | 320 kts | 227° |
| 2026-05-05 09:01 | 9.05636 | 38.41070 | 16455 ft | 310 kts | 227° |
| 2026-05-05 09:01 | 9.04226 | 38.39446 | 15931 ft | 304 kts | 227° |
| 2026-05-05 09:02 | 9.02804 | 38.37879 | 15367 ft | 300 kts | 221° |
| 2026-05-05 09:02 | 9.01113 | 38.36670 | 14936 ft | 297 kts | 203° |
| 2026-05-05 09:02 | 8.99196 | 38.36076 | 14636 ft | 289 kts | 184° |
| 2026-05-05 09:02 | 8.97217 | 38.36120 | 14312 ft | 281 kts | 166° |
| 2026-05-05 09:03 | 8.95367 | 38.36712 | 13955 ft | 277 kts | 154° |
| 2026-05-05 09:03 | 8.93606 | 38.37473 | 13717 ft | 272 kts | 153° |
| 2026-05-05 09:03 | 8.91873 | 38.38236 | 13873 ft | 274 kts | 153° |
| 2026-05-05 09:03 | 8.90156 | 38.39081 | 13941 ft | 273 kts | 143° |
| 2026-05-05 09:04 | 8.88832 | 38.40397 | 13920 ft | 265 kts | 118° |
| 2026-05-05 09:04 | 8.88212 | 38.42117 | 13434 ft | 262 kts | 95° |
| 2026-05-05 09:04 | 8.88059 | 38.43976 | 12943 ft | 264 kts | 90° |
| 2026-05-05 09:04 | 8.87970 | 38.45778 | 12747 ft | 256 kts | 91° |
| 2026-05-05 09:05 | 8.87872 | 38.47575 | 12404 ft | 255 kts | 91° |
| 2026-05-05 09:05 | 8.87765 | 38.49366 | 12055 ft | 254 kts | 92° |
| 2026-05-05 09:05 | 8.87652 | 38.51134 | 11770 ft | 250 kts | 92° |
| 2026-05-05 09:05 | 8.87538 | 38.52854 | 11518 ft | 246 kts | 92° |
| 2026-05-05 09:06 | 8.87424 | 38.54585 | 11142 ft | 247 kts | 92° |
| 2026-05-05 09:06 | 8.87308 | 38.56323 | 10765 ft | 248 kts | 92° |
| 2026-05-05 09:06 | 8.87193 | 38.57994 | 10535 ft | 243 kts | 93° |
| 2026-05-05 09:06 | 8.87168 | 38.59690 | 10445 ft | 240 kts | 83° |
| 2026-05-05 09:07 | 8.87713 | 38.61266 | 10436 ft | 244 kts | 57° |
| 2026-05-05 09:07 | 8.88922 | 38.62484 | 10454 ft | 245 kts | 39° |
| 2026-05-05 09:07 | 8.90269 | 38.63467 | 10440 ft | 230 kts | 37° |
| 2026-05-05 09:07 | 8.91522 | 38.64361 | 10444 ft | 213 kts | 38° |
| 2026-05-05 09:08 | 8.92567 | 38.65298 | 10479 ft | 188 kts | 54° |
| 2026-05-05 09:08 | 8.93210 | 38.66364 | 10468 ft | 167 kts | 65° |
| 2026-05-05 09:08 | 8.93711 | 38.67359 | 10462 ft | 153 kts | 65° |
| 2026-05-05 09:08 | 8.94171 | 38.68296 | 10227 ft | 149 kts | 66° |
| 2026-05-05 09:09 | 8.94608 | 38.69276 | 9622 ft | 162 kts | 68° |
| 2026-05-05 09:09 | 8.95006 | 38.70398 | 9013 ft | 172 kts | 75° |
| 2026-05-05 09:09 | 8.95314 | 38.71521 | 8854 ft | 156 kts | 81° |
| 2026-05-05 09:09 | 8.95562 | 38.72558 | 8593 ft | 150 kts | 79° |
| 2026-05-05 09:10 | 8.95818 | 38.73575 | 8422 ft | 145 kts | 76° |
| 2026-05-05 09:10 | 8.96105 | 38.74568 | 8341 ft | 152 kts | 71° |
| 2026-05-05 09:10 | 8.96464 | 38.75581 | 8130 ft | 155 kts | 73° |
| 2026-05-05 09:10 | 8.96726 | 38.76619 | 7970 ft | 151 kts | 75° |
| 2026-05-05 09:11 | 8.97028 | 38.77631 | 7772 ft | 149 kts | 76° |
| 2026-05-05 09:11 | 8.97310 | 38.78622 | 7674 ft | 147 kts | 70° |
| 2026-05-05 09:11 | 8.97595 | 38.79608 | 7626 ft | 134 kts | 72° |
| 2026-05-05 09:11 | 8.97806 | 38.80322 | 7629 ft | 88 kts | 64° |
| 2026-05-05 09:12 | 8.97936 | 38.80755 | 7630 ft | 48 kts | 75° |
| 2026-05-05 09:12 | 8.97995 | 38.80971 | 7625 ft | 23 kts | 73° |
| 2026-05-05 09:12 | 8.98038 | 38.81103 | 7625 ft | 17 kts | 68° |
| 2026-05-05 09:12 | 8.98087 | 38.81189 | 7625 ft | 12 kts | 54° |
| 2026-05-05 09:13 | 8.98134 | 38.81242 | 7625 ft | 9 kts | 45° |
| 2026-05-05 09:13 | 8.98139 | 38.81248 | 7625 ft | 0 kts | 45° |
| 2026-05-05 09:13 | 8.98141 | 38.81249 | 7625 ft | 1 kts | 45° |
| 2026-05-05 09:14 | 8.98164 | 38.81272 | 7626 ft | 10 kts | 42° |
| 2026-05-05 09:14 | 8.98236 | 38.81314 | 7626 ft | 14 kts | 1° |
| 2026-05-05 09:14 | 8.98272 | 38.81236 | 7627 ft | 16 kts | 262° |
| 2026-05-05 09:14 | 8.98236 | 38.81108 | 7627 ft | 22 kts | 253° |
| 2026-05-05 09:15 | 8.98190 | 38.80949 | 7627 ft | 26 kts | 254° |
| 2026-05-05 09:15 | 8.98135 | 38.80755 | 7626 ft | 30 kts | 254° |
| 2026-05-05 09:15 | 8.98087 | 38.80596 | 7628 ft | 23 kts | 253° |
| 2026-05-05 09:15 | 8.98054 | 38.80484 | 7628 ft | 15 kts | 253° |
| 2026-05-05 09:16 | 8.98020 | 38.80366 | 7629 ft | 19 kts | 254° |
| 2026-05-05 09:16 | 8.97978 | 38.80227 | 7632 ft | 23 kts | 254° |
| 2026-05-05 09:16 | 8.97930 | 38.80060 | 7628 ft | 27 kts | 253° |
| 2026-05-05 09:16 | 8.97892 | 38.79928 | 7628 ft | 17 kts | 253° |
| 2026-05-05 09:17 | 8.97894 | 38.79854 | 7630 ft | 11 kts | 296° |
| 2026-05-05 09:17 | 8.97938 | 38.79808 | 7628 ft | 12 kts | 331° |
| 2026-05-05 09:17 | 8.98031 | 38.79785 | 7627 ft | 16 kts | 352° |
| 2026-05-05 09:17 | 8.98112 | 38.79762 | 7627 ft | 8 kts | 342° |
| 2026-05-05 09:18 | 8.98166 | 38.79725 | 7627 ft | 11 kts | 292° |
| 2026-05-05 09:18 | 8.98140 | 38.79668 | 7627 ft | 10 kts | 222° |
| 2026-05-05 09:18 | 8.98129 | 38.79646 | 7627 ft | 0 kts | 261° |
| 2026-05-05 09:18 | 8.98131 | 38.79639 | 7627 ft | 4 kts | 279° |
| 2026-05-05 09:19 | 8.98154 | 38.79619 | 7627 ft | 7 kts | 328° |
| 2026-05-05 09:19 | 8.98177 | 38.79609 | 7627 ft | 2 kts | 339° |
| 2026-05-05 09:19 | 8.98197 | 38.79602 | 7627 ft | 0 kts | 342° |
| 2026-05-05 09:19 | 8.98217 | 38.79596 | 7627 ft | 0 kts | 344° |